Time;durP1;ratioP1;P1;durP2;ratioP2;P2;SDS_P1;SDS_P2;PMS_P1;PMS_P2;Temp;Humidity;BMP_temperature;BMP_pressure;BME280_temperature;BME280_humidity;BME280_pressure;Samples;Min_cycle;Max_cycle;Signal;HPM_P1;HPM_P2
2022/01/04 00:00:54;;;;;;;3.87;1.70;;;;;;;7.65;98.11;100034.63;2089971;28;20158;-70
2022/01/04 00:01:57;;;;;;;3.13;1.50;;;;;;;7.66;98.21;100038.06;2098091;28;20427;-68
2022/01/04 00:02:57;;;;;;;3.47;1.35;;;;;;;7.65;98.56;100029.44;2098121;28;20036;-66
2022/01/04 00:03:58;;;;;;;3.57;1.10;;;;;;;7.64;98.56;100032.09;2098186;28;20028;-68
2022/01/04 00:04:58;;;;;;;2.57;1.57;;;;;;;7.64;98.81;100030.34;2098781;28;20055;-69
2022/01/04 00:05:58;;;;;;;3.40;1.80;;;;;;;7.63;98.92;100026.03;2098811;28;20474;-69
2022/01/04 00:06:58;;;;;;;2.77;1.77;;;;;;;7.63;98.65;100028.63;2098666;28;20024;-69
2022/01/04 00:08:00;;;;;;;3.77;1.40;;;;;;;7.62;98.70;100024.34;2098774;28;20021;-69
2022/01/04 00:09:00;;;;;;;2.75;1.27;;;;;;;7.59;98.83;100020.16;2089784;28;20052;-69
2022/01/04 00:10:01;;;;;;;3.08;1.25;;;;;;;7.60;98.91;100015.81;2081565;28;20025;-69
2022/01/04 00:11:19;;;;;;;4.32;1.60;;;;;;;7.58;98.96;100017.63;2089959;28;20088;-68
2022/01/04 00:13:39;;;;;;;3.70;1.50;;;;;;;7.57;98.72;100018.53;2098706;28;20024;-69
2022/01/04 00:14:40;;;;;;;4.57;1.38;;;;;;;7.56;99.12;100014.25;2098616;28;20111;-69
2022/01/04 00:15:43;;;;;;;2.40;1.30;;;;;;;7.56;99.20;100019.44;2097899;28;20021;-69
2022/01/04 00:16:44;;;;;;;3.10;1.42;;;;;;;7.56;98.88;100011.66;2089657;28;20029;-66
2022/01/04 00:17:44;;;;;;;5.95;1.73;;;;;;;7.54;99.15;100009.13;2089796;28;20025;-69
2022/01/04 00:18:46;;;;;;;4.30;1.83;;;;;;;7.55;99.58;100017.75;2098692;28;20063;-69
2022/01/04 00:19:46;;;;;;;4.28;1.50;;;;;;;7.53;99.22;100006.59;2089631;28;20093;-69
2022/01/04 00:20:47;;;;;;;3.47;1.47;;;;;;;7.52;99.52;100003.13;2089803;28;20180;-69
2022/01/04 00:21:48;;;;;;;3.28;1.30;;;;;;;7.52;99.49;100002.31;2098423;28;20024;-70
2022/01/04 00:22:48;;;;;;;4.10;1.70;;;;;;;7.51;99.30;100005.81;2089774;28;20016;-68
2022/01/04 00:23:48;;;;;;;5.73;1.70;;;;;;;7.50;99.37;99998.94;2089784;28;20021;-68
2022/01/04 00:24:49;;;;;;;3.87;1.80;;;;;;;7.47;99.62;99999.91;2098579;28;20032;-69
2022/01/04 00:25:49;;;;;;;3.77;1.40;;;;;;;7.47;99.38;100005.09;2098688;28;20039;-67
2022/01/04 00:26:49;;;;;;;6.93;1.63;;;;;;;7.45;99.46;99997.38;2098574;28;20023;-68
2022/01/04 00:27:49;;;;;;;3.63;2.13;;;;;;;7.45;99.65;99994.78;2098592;28;20028;-67
2022/01/04 00:28:50;;;;;;;3.60;1.50;;;;;;;7.44;99.72;99990.50;2095896;28;20051;-68
2022/01/04 00:29:50;;;;;;;4.40;1.67;;;;;;;7.43;100.00;99988.78;2098038;28;20020;-65
2022/01/04 00:30:51;;;;;;;3.65;2.13;;;;;;;7.43;99.63;99983.59;2106854;28;20058;-67
2022/01/04 00:31:51;;;;;;;5.10;1.80;;;;;;;7.41;100.00;99980.25;2106940;28;20031;-66
2022/01/04 00:32:51;;;;;;;6.17;2.53;;;;;;;7.41;100.00;99975.06;2106981;28;20313;-65
2022/01/04 00:33:52;;;;;;;3.50;1.53;;;;;;;7.41;99.62;99974.19;2106932;28;20020;-67
2022/01/04 00:34:52;;;;;;;3.08;1.55;;;;;;;7.40;100.00;99968.19;2097916;28;20086;-68
2022/01/04 00:35:53;;;;;;;4.23;1.70;;;;;;;7.39;100.00;99963.06;2097938;28;20473;-69
2022/01/04 00:36:53;;;;;;;4.57;1.70;;;;;;;7.38;100.00;99967.38;2106333;28;20488;-69
2022/01/04 00:37:54;;;;;;;4.77;2.00;;;;;;;7.37;100.00;99957.94;2106934;28;20012;-70
2022/01/04 00:38:54;;;;;;;4.67;1.57;;;;;;;7.37;99.99;99957.94;2107001;28;20031;-67
2022/01/04 00:39:54;;;;;;;4.90;2.27;;;;;;;7.36;100.00;99958.84;2106982;28;20028;-69
2022/01/04 00:40:55;;;;;;;3.93;1.70;;;;;;;7.36;100.00;99951.06;2097862;28;20074;-69
2022/01/04 00:41:55;;;;;;;3.30;1.70;;;;;;;7.35;100.00;99951.94;2097849;28;20059;-69
2022/01/04 00:42:58;;;;;;;5.20;2.67;;;;;;;7.34;100.00;99945.06;2105943;28;20019;-67
2022/01/04 00:43:58;;;;;;;4.45;1.95;;;;;;;7.34;100.00;99958.06;2106292;28;20396;-69
2022/01/04 00:44:58;;;;;;;3.93;1.93;;;;;;;7.32;100.00;99947.72;2106922;28;20094;-69
2022/01/04 00:45:59;;;;;;;5.40;1.83;;;;;;;7.32;100.00;99949.47;2106896;28;20454;-70
2022/01/04 00:47:00;;;;;;;;;;;;;;;7.33;100.00;99946.81;2106559;28;20059;-69
2022/01/04 00:49:10;;;;;;;3.17;1.63;;;;;;;7.32;100.00;99944.28;2106986;28;20036;-70
2022/01/04 00:50:10;;;;;;;5.07;1.77;;;;;;;7.31;100.00;99942.59;2106882;28;20030;-68
2022/01/04 00:51:11;;;;;;;4.73;2.07;;;;;;;7.30;100.00;99941.78;2106825;28;20460;-66
2022/01/04 00:52:16;;;;;;;4.83;2.07;;;;;;;7.29;100.00;99937.47;2097812;28;20035;-67
2022/01/04 00:53:16;;;;;;;3.97;1.77;;;;;;;7.29;100.00;99939.25;2089965;28;20021;-69
2022/01/04 00:54:17;;;;;;;5.67;1.97;;;;;;;7.28;100.00;99937.53;2097870;28;20085;-69
2022/01/04 00:55:18;;;;;;;5.65;2.13;;;;;;;7.27;100.00;99935.88;2097606;28;20029;-68
2022/01/04 00:56:18;;;;;;;5.28;2.83;;;;;;;7.27;100.00;99938.47;2089522;28;20052;-70
2022/01/04 00:57:18;;;;;;;4.17;1.90;;;;;;;7.26;100.00;99941.97;2097860;28;20155;-69
2022/01/04 00:58:19;;;;;;;4.40;1.70;;;;;;;7.26;100.00;99936.78;2105953;28;20038;-69
2022/01/04 00:59:19;;;;;;;5.67;2.10;;;;;;;7.26;100.00;99934.19;2106222;28;20039;-69
2022/01/04 01:00:20;;;;;;;3.43;1.90;;;;;;;7.26;100.00;99934.19;2106794;28;20028;-68
2022/01/04 01:01:21;;;;;;;3.85;1.88;;;;;;;7.25;100.00;99937.69;2097681;28;20046;-69
2022/01/04 01:02:21;;;;;;;7.07;2.53;;;;;;;7.24;100.00;99923.88;2097649;28;20028;-69
2022/01/04 01:03:22;;;;;;;4.53;2.10;;;;;;;7.24;100.00;99923.00;2106133;28;20031;-69
2022/01/04 01:04:23;;;;;;;5.77;2.60;;;;;;;7.23;100.00;99924.78;2097735;28;20036;-68
2022/01/04 01:05:25;;;;;;;5.07;2.25;;;;;;;7.24;100.00;99915.22;2097754;28;20024;-69
2022/01/04 01:06:26;;;;;;;8.40;2.08;;;;;;;7.25;100.00;99919.53;2106222;28;20031;-68
2022/01/04 01:07:26;;;;;;;6.25;2.30;;;;;;;7.21;100.00;99914.47;2097593;28;20016;-68
2022/01/04 01:08:27;;;;;;;6.20;2.20;;;;;;;7.22;100.00;99918.75;2097802;28;20035;-69
2022/01/04 01:09:31;;;;;;;4.23;1.80;;;;;;;7.20;100.00;99915.38;2106683;28;20079;-72
2022/01/04 01:11:34;;;;;;;5.57;2.22;;;;;;;7.22;100.00;99918.75;2106809;28;20431;-69
2022/01/04 01:12:35;;;;;;;5.03;2.03;;;;;;;7.21;100.00;99911.88;2097726;28;20174;-69
2022/01/04 01:13:36;;;;;;;4.33;2.20;;;;;;;7.20;100.00;99920.56;2089346;28;20032;-68
2022/01/04 01:14:36;;;;;;;4.45;2.25;;;;;;;7.21;100.00;99918.81;2097714;28;20039;-68
2022/01/04 01:15:40;;;;;;;6.83;2.53;;;;;;;7.20;100.00;99920.56;2106731;28;20438;-68
2022/01/04 01:16:40;;;;;;;6.53;2.00;;;;;;;7.20;100.00;99922.31;2106758;28;20028;-69
2022/01/04 01:17:40;;;;;;;5.27;1.97;;;;;;;7.19;100.00;99924.06;2106645;28;20103;-69
2022/01/04 01:18:41;;;;;;;4.50;1.90;;;;;;;7.19;100.00;99918.03;2106682;28;20063;-69
2022/01/04 01:19:41;;;;;;;6.13;1.95;;;;;;;7.19;100.00;99923.22;2106723;28;20020;-69
2022/01/04 01:20:41;;;;;;;6.30;2.03;;;;;;;7.19;100.00;99920.63;2106737;28;20020;-67
2022/01/04 01:21:42;;;;;;;5.17;1.83;;;;;;;7.17;100.00;99915.50;2106688;28;20012;-69
2022/01/04 01:22:42;;;;;;;4.10;1.70;;;;;;;7.18;100.00;99919.78;2106646;28;20292;-68
2022/01/04 01:23:42;;;;;;;6.03;2.47;;;;;;;7.18;100.00;99916.34;2106692;28;20047;-69
2022/01/04 01:24:43;;;;;;;2.93;1.80;;;;;;;7.17;100.00;99914.66;2106743;28;20012;-68
2022/01/04 01:25:43;;;;;;;6.20;2.13;;;;;;;7.17;100.00;99919.84;2106706;28;20031;-70
2022/01/04 01:26:45;;;;;;;4.67;2.30;;;;;;;7.18;100.00;99914.59;2106407;28;20016;-70
2022/01/04 01:27:45;;;;;;;5.38;2.10;;;;;;;7.17;100.00;99909.47;2106646;28;20044;-69
2022/01/04 01:28:46;;;;;;;6.20;1.93;;;;;;;7.17;100.00;99910.31;2091642;28;20044;-69
2022/01/04 01:29:46;;;;;;;4.60;2.00;;;;;;;7.16;100.00;99903.44;2081146;28;20022;-69
2022/01/04 01:30:46;;;;;;;4.70;2.40;;;;;;;7.17;100.00;99904.28;2089393;28;20494;-69
2022/01/04 01:31:47;;;;;;;6.00;2.47;;;;;;;7.14;100.00;99902.66;2089499;28;20079;-69
2022/01/04 01:32:48;;;;;;;5.63;2.67;;;;;;;7.16;100.00;99902.59;2098301;28;20066;-69
2022/01/04 01:33:49;;;;;;;5.05;2.67;;;;;;;7.15;100.00;99901.75;2089390;28;20028;-69
2022/01/04 01:34:49;;;;;;;5.22;2.13;;;;;;;7.15;100.00;99896.56;2089376;28;20035;-67
2022/01/04 01:35:50;;;;;;;4.70;2.10;;;;;;;7.15;100.00;99896.56;2089417;28;20029;-68
2022/01/04 01:36:50;;;;;;;4.80;2.42;;;;;;;7.15;100.00;99901.75;2089382;28;20043;-66
2022/01/04 01:37:51;;;;;;;6.77;1.90;;;;;;;7.14;100.00;99894.88;2089549;28;20021;-67
2022/01/04 01:38:51;;;;;;;5.43;2.03;;;;;;;7.14;100.00;99900.06;2098485;28;20536;-68
2022/01/04 01:39:51;;;;;;;6.07;2.60;;;;;;;7.13;100.00;99882.81;2098341;28;20056;-68
2022/01/04 01:40:52;;;;;;;5.00;2.00;;;;;;;7.14;100.00;99887.09;2098420;28;20020;-68
2022/01/04 01:41:53;;;;;;;6.43;2.78;;;;;;;7.13;100.00;99879.38;2098274;28;20063;-68
2022/01/04 01:42:53;;;;;;;4.30;2.03;;;;;;;7.12;100.00;99883.72;2098463;28;20102;-68
2022/01/04 01:43:53;;;;;;;6.23;2.43;;;;;;;7.12;100.00;99890.66;2098370;28;20082;-65
2022/01/04 01:44:53;;;;;;;5.33;2.63;;;;;;;7.11;100.00;99878.63;2098297;28;20023;-66
2022/01/04 01:45:54;;;;;;;5.00;2.30;;;;;;;7.12;100.00;99878.50;2098309;28;20508;-68
2022/01/04 01:46:54;;;;;;;5.23;2.43;;;;;;;7.10;100.00;99880.34;2098143;28;20059;-68
2022/01/04 01:47:55;;;;;;;5.30;2.57;;;;;;;7.09;100.00;99876.09;2098298;28;20107;-69
2022/01/04 01:48:55;;;;;;;5.05;2.33;;;;;;;7.09;100.00;99876.91;2098291;28;20052;-68
2022/01/04 01:49:55;;;;;;;4.83;2.47;;;;;;;7.09;100.00;99866.53;2098228;28;20092;-66
2022/01/04 01:50:56;;;;;;;6.63;2.87;;;;;;;7.10;100.00;99872.56;2098228;28;20017;-69
2022/01/04 01:51:57;;;;;;;4.37;2.40;;;;;;;7.09;100.00;99870.91;2098301;28;20539;-68
2022/01/04 01:52:58;;;;;;;4.97;2.50;;;;;;;7.09;100.00;99876.09;2098161;28;20490;-68
2022/01/04 01:53:59;;;;;;;8.88;3.00;;;;;;;7.09;100.00;99870.91;2098273;28;20029;-69
2022/01/04 01:55:00;;;;;;;5.35;2.30;;;;;;;7.09;100.00;99874.31;2098128;28;20043;-69
2022/01/04 01:56:00;;;;;;;6.47;3.37;;;;;;;7.09;100.00;99873.47;2089144;28;20020;-68
2022/01/04 01:57:00;;;;;;;5.40;2.60;;;;;;;7.11;100.00;99873.44;2089204;28;20021;-66
2022/01/04 01:58:01;;;;;;;6.40;2.40;;;;;;;7.07;100.00;99873.56;2097574;28;20021;-70
2022/01/04 01:59:01;;;;;;;4.90;2.70;;;;;;;7.07;100.00;99868.34;2089175;28;20021;-68
2022/01/04 02:00:05;;;;;;;6.65;2.63;;;;;;;7.06;100.00;99876.22;2089212;28;20040;-68
2022/01/04 02:01:06;;;;;;;6.70;2.97;;;;;;;7.07;100.00;99877.88;2089196;28;20433;-67
2022/01/04 02:02:06;;;;;;;6.17;2.47;;;;;;;7.08;100.00;99876.97;2089170;28;20025;-67
2022/01/04 02:03:06;;;;;;;4.67;2.17;;;;;;;7.08;100.00;99879.56;2089248;28;20212;-69
2022/01/04 02:04:07;;;;;;;4.07;2.50;;;;;;;7.07;100.00;99867.50;2097502;28;20040;-69
2022/01/04 02:05:09;;;;;;;7.38;2.42;;;;;;;7.08;100.00;99869.19;2098132;28;20024;-69
2022/01/04 02:06:09;;;;;;;;;;;;;;;7.08;100.00;99869.19;2098581;28;20028;-69
2022/01/04 02:07:11;;;;;;;5.07;2.45;;;;;;;7.08;100.00;99869.19;2098141;28;19923;-68
2022/01/04 02:08:12;;;;;;;5.55;2.70;;;;;;;7.07;100.00;99867.50;2098191;28;20016;-69
2022/01/04 02:09:12;;;;;;;7.22;2.45;;;;;;;7.08;100.00;99864.00;2098129;28;20025;-66
2022/01/04 02:10:13;;;;;;;6.30;2.60;;;;;;;7.05;100.00;99848.59;2098184;28;20031;-69
2022/01/04 02:11:14;;;;;;;5.45;2.70;;;;;;;7.04;100.00;99854.66;2089115;28;20048;-68
2022/01/04 02:12:15;;;;;;;5.87;3.20;;;;;;;7.03;100.00;99850.38;2089226;28;20025;-68
2022/01/04 02:13:15;;;;;;;6.03;3.00;;;;;;;7.01;100.00;99847.03;2098162;28;20111;-67
2022/01/04 02:14:16;;;;;;;7.83;2.80;;;;;;;7.01;100.00;99847.03;2098115;28;20025;-70
2022/01/04 02:15:19;;;;;;;4.43;2.13;;;;;;;7.01;100.00;99852.22;2098153;28;20447;-68
2022/01/04 02:16:20;;;;;;;7.07;3.00;;;;;;;6.99;100.00;99838.47;2098061;28;20463;-68
2022/01/04 02:17:20;;;;;;;6.38;3.20;;;;;;;6.98;100.00;99840.19;2098118;28;20119;-68
2022/01/04 02:18:21;;;;;;;4.60;2.33;;;;;;;6.98;100.00;99837.59;2098160;28;20028;-69
2022/01/04 02:19:21;;;;;;;5.75;2.80;;;;;;;6.98;100.00;99836.78;2098114;28;20396;-67
2022/01/04 02:20:22;;;;;;;5.23;2.77;;;;;;;6.98;100.00;99831.59;2089178;28;20037;-69
2022/01/04 02:21:22;;;;;;;6.10;2.77;;;;;;;6.99;100.00;99838.47;2089293;28;20043;-67
2022/01/04 02:22:22;;;;;;;5.77;2.70;;;;;;;6.99;100.00;99833.28;2089108;28;20488;-69
2022/01/04 02:23:23;;;;;;;5.90;2.90;;;;;;;6.99;100.00;99835.88;2089178;28;20048;-69
2022/01/04 02:24:24;;;;;;;6.22;3.20;;;;;;;6.97;100.00;99827.31;2098095;28;20020;-68
2022/01/04 02:25:24;;;;;;;9.03;3.40;;;;;;;6.97;100.00;99827.31;2089144;28;20072;-69
2022/01/04 02:26:25;;;;;;;6.67;3.07;;;;;;;6.95;100.00;99828.22;2080902;28;20761;-69
2022/01/04 02:27:25;;;;;;;7.38;3.10;;;;;;;6.97;100.00;99825.56;2089103;28;20029;-69
2022/01/04 02:28:26;;;;;;;6.07;3.63;;;;;;;6.95;100.00;99828.22;2097345;28;20123;-67
2022/01/04 02:29:27;;;;;;;4.97;2.80;;;;;;;6.94;100.00;99826.53;2097949;28;20039;-68
2022/01/04 02:30:27;;;;;;;8.05;3.50;;;;;;;6.95;100.00;99829.97;2098068;28;20028;-69
2022/01/04 02:31:28;;;;;;;5.80;2.85;;;;;;;6.94;100.00;99823.94;2097988;28;20035;-69
2022/01/04 02:32:28;;;;;;;6.10;3.03;;;;;;;6.94;100.00;99823.94;2098037;28;20033;-69
2022/01/04 02:33:29;;;;;;;8.70;3.10;;;;;;;6.95;100.00;99817.84;2089173;28;20072;-68
2022/01/04 02:34:29;;;;;;;6.47;3.10;;;;;;;6.94;100.00;99816.16;2089111;28;20056;-68
2022/01/04 02:35:31;;;;;;;6.93;2.70;;;;;;;6.94;100.00;99820.50;2089079;28;20040;-71
2022/01/04 02:36:32;;;;;;;6.35;2.90;;;;;;;6.94;100.00;99817.91;2097962;28;20035;-69
2022/01/04 02:37:33;;;;;;;6.03;3.00;;;;;;;6.95;100.00;99825.63;2098070;28;20048;-70
2022/01/04 02:38:33;;;;;;;7.93;2.80;;;;;;;6.94;100.00;99821.34;2098065;28;20372;-66
2022/01/04 02:39:37;;;;;;;7.10;3.47;;;;;;;6.94;100.00;99826.53;2099417;28;20118;-68
2022/01/04 02:40:38;;;;;;;4.40;2.65;;;;;;;6.93;100.00;99814.50;2090678;28;20017;-69
2022/01/04 02:41:38;;;;;;;5.87;2.80;;;;;;;6.95;100.00;99817.00;2090635;28;20017;-69
2022/01/04 02:42:39;;;;;;;6.53;3.40;;;;;;;6.94;100.00;99813.56;2099463;28;20021;-69
2022/01/04 02:43:39;;;;;;;5.28;2.95;;;;;;;6.93;100.00;99819.69;2090638;28;20027;-68
2022/01/04 02:44:40;;;;;;;6.57;2.70;;;;;;;6.93;100.00;99824.84;2090524;28;20449;-69
2022/01/04 02:45:40;;;;;;;4.23;2.20;;;;;;;6.93;100.00;99817.06;2099447;28;20020;-70
2022/01/04 02:46:40;;;;;;;4.80;3.03;;;;;;;6.93;100.00;99821.41;2099458;28;20491;-69
2022/01/04 02:47:41;;;;;;;6.83;2.50;;;;;;;6.92;100.00;99807.59;2099291;28;20108;-68
2022/01/04 02:48:43;;;;;;;4.37;2.23;;;;;;;6.91;100.00;99810.28;2090473;28;20721;-68
2022/01/04 02:49:43;;;;;;;4.93;2.58;;;;;;;6.91;100.00;99811.09;2090584;28;20100;-69
2022/01/04 02:50:44;;;;;;;6.63;2.80;;;;;;;6.91;100.00;99797.31;2090438;28;20028;-69
2022/01/04 02:51:44;;;;;;;5.50;2.40;;;;;;;6.90;100.00;99804.25;2090603;28;20047;-68
2022/01/04 02:52:45;;;;;;;7.53;3.20;;;;;;;6.90;100.00;99799.06;2099439;28;20028;-68
2022/01/04 02:53:45;;;;;;;6.07;2.80;;;;;;;6.90;100.00;99791.28;2099447;28;20028;-69
2022/01/04 02:54:46;;;;;;;5.60;2.87;;;;;;;6.89;100.00;99802.56;2099333;28;20016;-69
2022/01/04 02:55:46;;;;;;;4.73;2.80;;;;;;;6.89;100.00;99792.19;2090444;28;20067;-70
2022/01/04 02:56:47;;;;;;;6.27;2.87;;;;;;;6.89;100.00;99797.38;2090608;28;20024;-67
2022/01/04 02:57:48;;;;;;;5.03;2.60;;;;;;;6.90;100.00;99799.06;2099238;28;20020;-66
2022/01/04 02:58:48;;;;;;;4.40;2.60;;;;;;;6.91;100.00;99792.13;2099406;28;20024;-67
2022/01/04 02:59:48;;;;;;;6.67;2.57;;;;;;;6.89;100.00;99779.22;2090377;28;20044;-68
2022/01/04 03:00:48;;;;;;;6.30;3.13;;;;;;;6.89;100.00;99787.00;2090452;28;20060;-67
2022/01/04 03:01:49;;;;;;;5.07;2.60;;;;;;;6.89;100.00;99781.81;2099315;28;20048;-69
2022/01/04 03:02:49;;;;;;;4.73;2.50;;;;;;;6.89;100.00;99784.41;2099307;28;20056;-67
2022/01/04 03:03:49;;;;;;;8.33;3.40;;;;;;;6.89;100.00;99781.81;2099321;28;20115;-69
2022/01/04 03:04:49;;;;;;;6.33;2.80;;;;;;;6.89;100.00;99770.59;2099408;28;20119;-69
2022/01/04 03:05:50;;;;;;;4.30;2.90;;;;;;;6.89;100.00;99775.78;2099293;28;20035;-69
2022/01/04 03:06:50;;;;;;;4.87;2.53;;;;;;;6.89;100.00;99771.44;2099103;28;20020;-67
2022/01/04 03:07:50;;;;;;;7.07;2.73;;;;;;;6.89;100.00;99771.44;2099333;28;20021;-69
2022/01/04 03:08:51;;;;;;;5.67;2.47;;;;;;;6.87;100.00;99762.88;2099196;28;20028;-68
2022/01/04 03:09:51;;;;;;;5.03;2.60;;;;;;;6.88;100.00;99764.53;2099290;28;20067;-65
2022/01/04 03:10:51;;;;;;;5.43;2.70;;;;;;;6.88;100.00;99758.53;2099307;28;20032;-68
2022/01/04 03:11:52;;;;;;;4.33;2.40;;;;;;;6.87;100.00;99764.63;2090221;28;20287;-68
2022/01/04 03:12:52;;;;;;;4.33;2.33;;;;;;;6.86;100.00;99761.19;2090243;28;20024;-67
2022/01/04 03:13:52;;;;;;;4.47;2.30;;;;;;;6.86;100.00;99761.19;2090396;28;20029;-70
2022/01/04 03:14:52;;;;;;;5.53;2.57;;;;;;;6.86;100.00;99760.34;2098395;28;20020;-69
2022/01/04 03:15:53;;;;;;;4.13;2.40;;;;;;;6.86;100.00;99755.16;2098597;28;20024;-69
2022/01/04 03:16:53;;;;;;;6.63;3.10;;;;;;;6.85;100.00;99749.16;2098516;28;20095;-68
2022/01/04 03:17:53;;;;;;;7.50;2.47;;;;;;;6.85;100.00;99753.47;2098636;28;20474;-70
2022/01/04 03:19:57;;;;;;;3.92;2.10;;;;;;;6.86;100.00;99750.81;2099353;28;20036;-67
2022/01/04 03:20:57;;;;;;;5.20;1.93;;;;;;;6.86;100.00;99752.56;2099240;28;20036;-69
2022/01/04 03:21:58;;;;;;;3.70;2.47;;;;;;;6.86;100.00;99750.81;2099196;28;20025;-69
2022/01/04 03:22:58;;;;;;;5.80;1.92;;;;;;;6.86;100.00;99740.44;2099156;28;20025;-68
2022/01/04 03:23:59;;;;;;;4.20;2.10;;;;;;;6.86;100.00;99739.59;2099069;28;20120;-70
2022/01/04 03:24:59;;;;;;;4.07;2.33;;;;;;;6.87;100.00;99733.53;2099123;28;20037;-69
2022/01/04 03:25:59;;;;;;;5.50;2.53;;;;;;;6.86;100.00;99730.06;2090272;28;20032;-69
2022/01/04 03:27:00;;;;;;;4.13;2.30;;;;;;;6.84;100.00;99731.88;2081897;28;20092;-69
2022/01/04 03:28:00;;;;;;;5.47;2.40;;;;;;;6.84;100.00;99729.28;2090213;28;20455;-69
2022/01/04 03:29:00;;;;;;;3.40;2.17;;;;;;;6.83;100.00;99725.88;2098401;28;20044;-69
2022/01/04 03:30:01;;;;;;;4.67;2.33;;;;;;;6.84;100.00;99724.09;2098978;28;20480;-70
2022/01/04 03:31:01;;;;;;;4.97;2.28;;;;;;;6.85;100.00;99722.34;2090183;28;20406;-70
2022/01/04 03:32:02;;;;;;;5.63;2.03;;;;;;;6.84;100.00;99716.31;2081813;28;20025;-69
2022/01/04 03:33:02;;;;;;;3.80;2.17;;;;;;;6.83;100.00;99717.22;2090175;28;20509;-68
2022/01/04 03:34:03;;;;;;;4.30;2.47;;;;;;;6.82;100.00;99707.78;2099126;28;20040;-69
2022/01/04 03:35:04;;;;;;;3.60;1.98;;;;;;;6.82;100.00;99713.78;2099055;28;20032;-69
2022/01/04 03:36:05;;;;;;;4.32;2.00;;;;;;;6.82;100.00;99707.78;2099037;28;20024;-69
2022/01/04 03:37:05;;;;;;;3.10;2.03;;;;;;;6.81;100.00;99706.09;2099094;28;20432;-68
2022/01/04 03:38:06;;;;;;;4.73;2.43;;;;;;;6.80;100.00;99702.66;2098313;28;20063;-69
2022/01/04 03:39:08;;;;;;;3.63;1.92;;;;;;;6.81;100.00;99700.91;2098412;28;20130;-69
2022/01/04 03:40:08;;;;;;;4.60;2.15;;;;;;;6.80;100.00;99696.63;2098977;28;20544;-70
2022/01/04 03:41:09;;;;;;;4.32;2.10;;;;;;;6.81;100.00;99701.75;2098316;28;20032;-70
2022/01/04 03:42:09;;;;;;;3.45;2.28;;;;;;;6.81;100.00;99693.13;2098405;28;20429;-70
2022/01/04 03:43:10;;;;;;;4.97;2.37;;;;;;;6.82;100.00;99697.41;2098999;28;20032;-68
2022/01/04 03:44:19;;;;;;;5.13;2.03;;;;;;;6.81;100.00;99688.78;2098958;28;20390;-68
2022/01/04 03:45:19;;;;;;;5.10;2.33;;;;;;;6.81;100.00;99685.34;2089993;28;20029;-70
2022/01/04 03:46:20;;;;;;;3.93;2.23;;;;;;;6.82;100.00;99681.84;2090075;28;20020;-69
2022/01/04 03:47:20;;;;;;;5.03;2.57;;;;;;;6.81;100.00;99675.81;2089961;28;20024;-69
2022/01/04 03:48:20;;;;;;;4.73;2.70;;;;;;;6.81;100.00;99675.81;2089906;28;20365;-70
2022/01/04 03:49:22;;;;;;;3.87;2.60;;;;;;;6.81;100.00;99675.00;2098134;28;20016;-67
2022/01/04 03:50:22;;;;;;;4.68;2.38;;;;;;;6.80;100.00;99673.28;2098196;28;20070;-69
2022/01/04 03:51:23;;;;;;;4.77;2.20;;;;;;;6.81;100.00;99667.22;2098954;28;20125;-69
2022/01/04 03:52:23;;;;;;;5.47;2.53;;;;;;;6.80;100.00;99663.75;2098900;28;20486;-69
2022/01/04 03:53:23;;;;;;;8.23;2.63;;;;;;;6.78;100.00;99664.75;2098949;28;20056;-68
2022/01/04 03:54:23;;;;;;;6.17;3.03;;;;;;;6.78;100.00;99660.38;2098923;28;20496;-67
2022/01/04 03:55:24;;;;;;;5.20;2.37;;;;;;;6.78;100.00;99660.38;2090002;28;20020;-68
2022/01/04 03:56:24;;;;;;;5.40;2.40;;;;;;;6.78;100.00;99669.94;2089985;28;20155;-68
2022/01/04 03:57:24;;;;;;;5.53;2.77;;;;;;;6.80;100.00;99657.72;2090002;28;20029;-68
2022/01/04 03:58:25;;;;;;;4.40;2.97;;;;;;;6.79;100.00;99656.03;2098718;28;20032;-69
2022/01/04 03:59:25;;;;;;;5.07;2.50;;;;;;;6.78;100.00;99656.97;2098813;28;20020;-68
2022/01/04 04:00:25;;;;;;;6.37;3.17;;;;;;;6.79;100.00;99650.88;2098881;28;20481;-69
2022/01/04 04:01:26;;;;;;;6.53;2.37;;;;;;;6.78;100.00;99652.59;2098909;28;20078;-68
2022/01/04 04:02:26;;;;;;;5.57;2.73;;;;;;;6.78;100.00;99650.00;2098821;28;20542;-69
2022/01/04 04:03:26;;;;;;;4.60;2.43;;;;;;;6.78;100.00;99649.19;2089929;28;20025;-69
2022/01/04 04:04:26;;;;;;;5.00;2.57;;;;;;;6.77;100.00;99644.91;2089980;28;20028;-69
2022/01/04 04:05:27;;;;;;;4.73;2.30;;;;;;;6.78;100.00;99647.41;2098782;28;20133;-67
2022/01/04 04:06:27;;;;;;;4.43;2.00;;;;;;;6.77;100.00;99639.72;2098819;28;20099;-70
2022/01/04 04:07:27;;;;;;;5.97;2.87;;;;;;;6.78;100.00;99638.81;2098733;28;20119;-70
2022/01/04 04:08:28;;;;;;;4.53;2.43;;;;;;;6.78;100.00;99636.22;2098864;28;20074;-68
2022/01/04 04:09:30;;;;;;;4.10;2.40;;;;;;;6.77;100.00;99637.16;2089896;28;20077;-70
2022/01/04 04:10:30;;;;;;;4.38;2.90;;;;;;;6.75;100.00;99625.97;2090046;28;20029;-69
2022/01/04 04:11:30;;;;;;;4.65;2.88;;;;;;;6.75;100.00;99629.44;2098776;28;20132;-69
2022/01/04 04:12:31;;;;;;;5.47;2.30;;;;;;;6.76;100.00;99625.06;2098733;28;20500;-69
2022/01/04 04:13:31;;;;;;;5.07;2.73;;;;;;;6.77;100.00;99624.19;2098102;28;20040;-69
2022/01/04 04:14:32;;;;;;;4.87;3.00;;;;;;;6.76;100.00;99631.09;2089881;28;20072;-67
2022/01/04 04:15:32;;;;;;;4.05;2.50;;;;;;;6.75;100.00;99624.25;2089998;28;20060;-69
2022/01/04 04:16:33;;;;;;;4.80;2.83;;;;;;;6.75;100.00;99624.25;2090196;28;20102;-70
2022/01/04 04:17:33;;;;;;;5.57;2.60;;;;;;;6.76;100.00;99619.88;2089931;28;20025;-69
2022/01/04 04:18:34;;;;;;;4.67;2.57;;;;;;;6.76;100.00;99619.88;2098898;28;20458;-69
2022/01/04 04:19:34;;;;;;;4.05;2.47;;;;;;;6.75;100.00;99628.56;2098911;28;20097;-69
2022/01/04 04:20:36;;;;;;;4.40;2.27;;;;;;;6.75;100.00;99618.22;2098721;28;20028;-70
2022/01/04 04:21:36;;;;;;;4.53;2.60;;;;;;;6.75;100.00;99620.81;2098728;28;20036;-68
2022/01/04 04:22:37;;;;;;;5.27;2.77;;;;;;;6.75;100.00;99618.22;2098654;28;20027;-69
2022/01/04 04:23:37;;;;;;;5.40;2.27;;;;;;;6.75;100.00;99616.47;2098666;28;20448;-68
2022/01/04 04:24:37;;;;;;;4.87;2.43;;;;;;;6.75;100.00;99605.25;2089626;28;20032;-67
2022/01/04 04:25:38;;;;;;;4.53;2.27;;;;;;;6.73;100.00;99604.47;2089914;28;20071;-70
2022/01/04 04:26:39;;;;;;;;;;;;;;;6.76;100.00;99599.13;2099090;28;20020;-69
2022/01/04 04:27:40;;;;;;;4.55;2.20;;;;;;;6.75;100.00;99607.84;2098565;28;19916;-68
2022/01/04 04:28:40;;;;;;;4.72;2.35;;;;;;;6.75;100.00;99603.50;2089586;28;20490;-70
2022/01/04 04:29:40;;;;;;;4.27;2.30;;;;;;;6.76;100.00;99604.31;2089726;28;20025;-69
2022/01/04 04:30:41;;;;;;;4.10;2.47;;;;;;;6.75;100.00;99603.50;2098604;28;20028;-69
2022/01/04 04:31:41;;;;;;;4.50;2.57;;;;;;;6.76;100.00;99609.50;2098678;28;20028;-69
2022/01/04 04:32:41;;;;;;;4.67;2.20;;;;;;;6.76;100.00;99609.50;2089729;28;20033;-69
2022/01/04 04:33:42;;;;;;;5.00;2.60;;;;;;;6.75;100.00;99608.69;2089773;28;20021;-69
2022/01/04 04:34:42;;;;;;;6.23;2.87;;;;;;;6.75;100.00;99610.44;2089572;28;20063;-68
2022/01/04 04:35:42;;;;;;;7.23;2.93;;;;;;;6.73;100.00;99604.47;2081463;28;20021;-68
2022/01/04 04:36:42;;;;;;;4.87;2.33;;;;;;;6.74;100.00;99606.16;2089689;28;20520;-68
2022/01/04 04:37:43;;;;;;;4.63;3.17;;;;;;;6.74;100.00;99600.97;2098619;28;20091;-68
2022/01/04 04:38:43;;;;;;;4.53;2.43;;;;;;;6.73;100.00;99601.88;2098625;28;20028;-69
2022/01/04 04:39:44;;;;;;;3.23;2.33;;;;;;;6.75;100.00;99602.66;2098498;28;20298;-69
2022/01/04 04:40:44;;;;;;;5.23;2.40;;;;;;;6.75;100.00;99600.06;2089681;28;20112;-68
2022/01/04 04:41:45;;;;;;;6.35;2.78;;;;;;;6.72;100.00;99598.44;2089745;28;20090;-67
2022/01/04 04:42:45;;;;;;;4.70;2.20;;;;;;;6.73;100.00;99599.28;2098583;28;20023;-69
2022/01/04 04:43:45;;;;;;;4.63;2.93;;;;;;;6.74;100.00;99599.19;2098548;28;20479;-70
2022/01/04 04:44:46;;;;;;;3.87;2.50;;;;;;;6.75;100.00;99597.47;2089613;28;20050;-69
2022/01/04 04:45:46;;;;;;;3.70;2.33;;;;;;;6.75;100.00;99600.06;2089761;28;20204;-67
2022/01/04 04:46:47;;;;;;;3.85;2.67;;;;;;;6.72;100.00;99597.59;2097842;28;20016;-69
2022/01/04 04:47:47;;;;;;;5.43;2.60;;;;;;;6.72;100.00;99602.78;2097845;28;20044;-68
2022/01/04 04:48:47;;;;;;;3.40;2.87;;;;;;;6.70;100.00;99593.34;2089560;28;20032;-66
2022/01/04 04:49:48;;;;;;;5.23;2.80;;;;;;;6.70;100.00;99598.50;2089661;28;20052;-69
2022/01/04 04:50:48;;;;;;;4.87;2.70;;;;;;;6.72;100.00;99595.00;2098594;28;20051;-69